Airfield :
LOGIN :

Register | Disclaimer

   EN    FR    IT 

 










Legend :    VFR   Marginal VFR   IFR   Intensive IFR   Very Intensive IFR
Visi :
Ceiling :
>= 8 km
>= 3000ft
5 to 8 km
1000 to 3000 ft
1500m to 5 km
500 to 1000 ft
800 to 1500m
200 to 500 ft
< 800m
< 200 ft
Symbols :   Thunderstorms  Fog  Heavy snow  Heavy precipitations  Wind > 20 kt
SIGMETs :     Misc.  Thunderstorms  Icing  Turbulence  Mountain Waves  Volcanic Ashes







- Airport Elevation : 171 ft
- IATA code : EGC
- Download approach charts


LFBE - Bergerac

CURRENT METAR :
  • 200930Z AUTO VRB02KT CAVOK 20/14 Q1016 NOSIG

EXPIRED METARs :
  • 200900Z AUTO VRB02KT CAVOK 19/14 Q1016 NOSIG
  • 200830Z AUTO 00000KT CAVOK 19/13 Q1017 NOSIG
  • 200800Z AUTO VRB01KT CAVOK 17/13 Q1017 NOSIG
  • 200730Z AUTO VRB02KT CAVOK 16/13 Q1017 NOSIG
  • 200700Z AUTO VRB03KT CAVOK 15/12 Q1017 NOSIG

TAF TAF LFBE
Valid from the 20 at 06:00 until the 21 at 06:00 UTC


200500Z 2006/2106 05005KT 8000 NSC
BECMG 2006/2008 CAVOK
PROB30
TEMPO 2015/2022 4000 SHRA FEW040CB BKN050TCU
PROB40 2103/2106 3000 BR
No reported NOTAMs for that airfield.



MET'MAP, your aeronautical weather chart ! - Copyright ORBIFLY December 2007 - Disclaimer

ORBIFLY MET'MAP TEAM :

Programming & Development : Alexandra Zaïnal
Concept & Development : Baudouin d'Aumeries
Co-Development & Prog : Marc-Olivier Méhu
Technical & hardware support : Manuel Goepfert

Contact : metmap@orbifly.com




SOURCES & CREDITS :

   NOAA